Pattaya, Thailand

7:58 PM ICT on September 27, 2016 (GMT +0700)
Pattaya | | Change Station

Elev 141 ft 12.93 °N, 100.91 °E | Updated 13 seconds ago

Scattered Clouds
Scattered Clouds
82.0 °F
Feels Like 91 °F
N
0.0
Wind Variable Wind from WSW
Gusts 0.0 mph

Today
High -- | Low -- °F
--% Chance of Precip.
Yesterday
High -- | Low -- °F
Precip. -- in
Pressure 29.74 in
Visibility 4.3 miles
Clouds Few 2000 ft
Scattered Clouds 10000 ft
Heat Index 91 °F
Dew Point 78 °F
Humidity 89%
Rainfall 0.38 in
Snow Depth Not available.
6:05 AM 6:09 PM
Waning Crescent, 11% visible
METAR VTBU 271230Z 21003KT 7000 FEW020CB SCT100 28/24 Q1007 NOSIG
Pressure 29.74 in
Visibility 4.3 miles
Clouds Few 2000 ft
Scattered Clouds 10000 ft
Heat Index 91 °F
Dew Point 78 °F
Humidity 89%
Rainfall 0.38 in
Snow Depth Not available.
6:05 AM 6:09 PM
Waning Crescent, 11% visible
METAR VTBU 271230Z 21003KT 7000 FEW020CB SCT100 28/24 Q1007 NOSIG

10-Day Weather Forecast

No radar image for this location.
×

Almanac

Astronomy

Sep. 27, 2016 Rise Set
Actual Time
Civil Twilight
Nautical Twilight
Astronomical Twilight
Moon
Length of Visible Light
Length of Day
Tomorrow will be .
, % of the Moon is Illuminated

Today's Extremes

Country Highs Country Lows

Community

WunderPhotos

Upload Photos

1,942,074 photos uploaded!

WunderBlog® & News

Nearby

Air Quality

  Air Quality AQ Index Pollutant
Not available.

Snow Depth

Station Depth Elevation

Earthquake Activity

City Distance Mag. Time & Date
Minimum magnitude displayed is 2.5.

Coastal Water Temperatures

Place Temperature

Stations

Nearby Weather Stations

Station Location Temp. Windchill Dew Point Humidity Wind Precip. Elev Updated Type